sensor_id;sensor_type;location;lat;lon;timestamp;P1;durP1;ratioP1;P2;durP2;ratioP2
11378;SDS011;5744;59.392;16.748;2023-07-08T00:00:57;1464.97;;;656.20;;
11378;SDS011;5744;59.392;16.748;2023-07-08T00:03:26;1598.97;;;685.93;;
11378;SDS011;5744;59.392;16.748;2023-07-08T00:05:55;1953.33;;;828.73;;
11378;SDS011;5744;59.392;16.748;2023-07-08T00:08:24;1401.00;;;649.13;;
11378;SDS011;5744;59.392;16.748;2023-07-08T00:10:53;1833.90;;;775.87;;
11378;SDS011;5744;59.392;16.748;2023-07-08T00:13:23;1951.47;;;814.90;;
11378;SDS011;5744;59.392;16.748;2023-07-08T00:15:54;1898.47;;;811.83;;
11378;SDS011;5744;59.392;16.748;2023-07-08T00:18:24;1999.90;;;850.33;;
11378;SDS011;5744;59.392;16.748;2023-07-08T00:20:53;1975.90;;;819.47;;
11378;SDS011;5744;59.392;16.748;2023-07-08T00:23:24;1999.90;;;870.83;;
11378;SDS011;5744;59.392;16.748;2023-07-08T00:25:53;1993.63;;;835.60;;
11378;SDS011;5744;59.392;16.748;2023-07-08T00:28:21;1979.07;;;840.63;;
11378;SDS011;5744;59.392;16.748;2023-07-08T00:30:50;1999.90;;;857.80;;
11378;SDS011;5744;59.392;16.748;2023-07-08T00:33:22;1999.90;;;816.97;;
11378;SDS011;5744;59.392;16.748;2023-07-08T00:35:51;1999.90;;;841.60;;
11378;SDS011;5744;59.392;16.748;2023-07-08T00:38:21;1999.90;;;879.47;;
11378;SDS011;5744;59.392;16.748;2023-07-08T00:40:52;1935.83;;;804.97;;
11378;SDS011;5744;59.392;16.748;2023-07-08T00:43:29;1999.90;;;865.93;;
11378;SDS011;5744;59.392;16.748;2023-07-08T00:46:08;1958.00;;;817.43;;
11378;SDS011;5744;59.392;16.748;2023-07-08T00:48:49;1925.97;;;803.87;;
11378;SDS011;5744;59.392;16.748;2023-07-08T00:51:20;1857.77;;;756.27;;
11378;SDS011;5744;59.392;16.748;2023-07-08T00:53:51;1996.60;;;808.80;;
11378;SDS011;5744;59.392;16.748;2023-07-08T00:56:21;1873.93;;;778.43;;
11378;SDS011;5744;59.392;16.748;2023-07-08T00:58:54;1999.90;;;848.77;;
11378;SDS011;5744;59.392;16.748;2023-07-08T01:01:29;1952.67;;;826.97;;
11378;SDS011;5744;59.392;16.748;2023-07-08T01:04:04;1929.97;;;825.07;;
11378;SDS011;5744;59.392;16.748;2023-07-08T01:06:36;1866.63;;;786.47;;
11378;SDS011;5744;59.392;16.748;2023-07-08T01:09:10;1992.70;;;845.60;;
11378;SDS011;5744;59.392;16.748;2023-07-08T01:11:41;1923.93;;;834.23;;
11378;SDS011;5744;59.392;16.748;2023-07-08T01:14:11;1995.10;;;901.23;;
11378;SDS011;5744;59.392;16.748;2023-07-08T01:16:46;1999.90;;;949.60;;
11378;SDS011;5744;59.392;16.748;2023-07-08T01:19:16;1999.90;;;849.13;;
11378;SDS011;5744;59.392;16.748;2023-07-08T01:22:03;1999.90;;;884.43;;
11378;SDS011;5744;59.392;16.748;2023-07-08T01:24:33;1988.63;;;805.60;;
11378;SDS011;5744;59.392;16.748;2023-07-08T01:27:05;1992.30;;;808.53;;
11378;SDS011;5744;59.392;16.748;2023-07-08T01:29:35;1999.90;;;801.20;;
11378;SDS011;5744;59.392;16.748;2023-07-08T01:32:04;1999.90;;;836.80;;
11378;SDS011;5744;59.392;16.748;2023-07-08T01:34:39;1962.73;;;825.10;;
11378;SDS011;5744;59.392;16.748;2023-07-08T01:37:11;1999.90;;;862.70;;
11378;SDS011;5744;59.392;16.748;2023-07-08T01:39:41;1999.90;;;835.97;;
11378;SDS011;5744;59.392;16.748;2023-07-08T01:42:10;1999.90;;;815.30;;
11378;SDS011;5744;59.392;16.748;2023-07-08T01:44:38;1999.90;;;946.93;;
11378;SDS011;5744;59.392;16.748;2023-07-08T01:47:08;1999.90;;;977.40;;
11378;SDS011;5744;59.392;16.748;2023-07-08T01:49:42;1999.90;;;787.43;;
11378;SDS011;5744;59.392;16.748;2023-07-08T01:52:16;1999.90;;;844.00;;
11378;SDS011;5744;59.392;16.748;2023-07-08T01:54:51;1999.90;;;771.33;;
11378;SDS011;5744;59.392;16.748;2023-07-08T01:57:23;1996.90;;;797.23;;
11378;SDS011;5744;59.392;16.748;2023-07-08T01:59:52;1999.90;;;785.80;;
11378;SDS011;5744;59.392;16.748;2023-07-08T02:02:21;1999.90;;;785.90;;
11378;SDS011;5744;59.392;16.748;2023-07-08T02:04:50;1999.90;;;816.33;;
11378;SDS011;5744;59.392;16.748;2023-07-08T02:07:21;1999.90;;;824.77;;
11378;SDS011;5744;59.392;16.748;2023-07-08T02:09:50;1999.90;;;814.70;;
11378;SDS011;5744;59.392;16.748;2023-07-08T02:12:19;1999.90;;;788.87;;
11378;SDS011;5744;59.392;16.748;2023-07-08T02:14:48;1999.90;;;779.23;;
11378;SDS011;5744;59.392;16.748;2023-07-08T02:17:17;1999.90;;;944.33;;
11378;SDS011;5744;59.392;16.748;2023-07-08T02:19:46;1999.90;;;954.43;;
11378;SDS011;5744;59.392;16.748;2023-07-08T02:22:15;1999.90;;;832.73;;
11378;SDS011;5744;59.392;16.748;2023-07-08T02:24:46;1999.90;;;701.13;;
11378;SDS011;5744;59.392;16.748;2023-07-08T02:27:15;1999.90;;;755.63;;
11378;SDS011;5744;59.392;16.748;2023-07-08T02:29:44;1999.90;;;999.90;;
11378;SDS011;5744;59.392;16.748;2023-07-08T02:32:13;1999.90;;;817.80;;
11378;SDS011;5744;59.392;16.748;2023-07-08T02:34:42;1999.90;;;740.60;;
11378;SDS011;5744;59.392;16.748;2023-07-08T02:37:11;1999.90;;;672.23;;
11378;SDS011;5744;59.392;16.748;2023-07-08T02:39:40;1999.90;;;999.90;;
11378;SDS011;5744;59.392;16.748;2023-07-08T02:42:11;1999.90;;;634.90;;
11378;SDS011;5744;59.392;16.748;2023-07-08T02:44:40;1999.90;;;915.00;;
11378;SDS011;5744;59.392;16.748;2023-07-08T02:47:09;1999.90;;;999.90;;
11378;SDS011;5744;59.392;16.748;2023-07-08T02:49:38;1999.90;;;904.90;;
11378;SDS011;5744;59.392;16.748;2023-07-08T02:52:07;1999.90;;;999.90;;
11378;SDS011;5744;59.392;16.748;2023-07-08T02:54:35;1999.90;;;674.43;;
11378;SDS011;5744;59.392;16.748;2023-07-08T02:57:04;1999.90;;;694.17;;
11378;SDS011;5744;59.392;16.748;2023-07-08T02:59:36;1999.90;;;999.90;;
11378;SDS011;5744;59.392;16.748;2023-07-08T03:02:05;1999.90;;;999.90;;
11378;SDS011;5744;59.392;16.748;2023-07-08T03:04:34;1999.90;;;620.03;;
11378;SDS011;5744;59.392;16.748;2023-07-08T03:07:04;1999.90;;;999.90;;
11378;SDS011;5744;59.392;16.748;2023-07-08T03:09:36;1999.90;;;999.90;;
11378;SDS011;5744;59.392;16.748;2023-07-08T03:12:06;1999.90;;;999.90;;
11378;SDS011;5744;59.392;16.748;2023-07-08T03:14:39;1999.90;;;643.27;;
11378;SDS011;5744;59.392;16.748;2023-07-08T03:17:08;1999.90;;;704.20;;
11378;SDS011;5744;59.392;16.748;2023-07-08T03:19:37;1999.90;;;999.90;;
11378;SDS011;5744;59.392;16.748;2023-07-08T03:22:06;1999.90;;;999.90;;
11378;SDS011;5744;59.392;16.748;2023-07-08T03:24:34;1999.90;;;644.73;;
11378;SDS011;5744;59.392;16.748;2023-07-08T03:27:11;1999.90;;;999.90;;
11378;SDS011;5744;59.392;16.748;2023-07-08T03:29:43;1999.90;;;999.90;;
11378;SDS011;5744;59.392;16.748;2023-07-08T03:32:12;1999.90;;;999.90;;
11378;SDS011;5744;59.392;16.748;2023-07-08T03:34:41;1999.90;;;999.90;;
11378;SDS011;5744;59.392;16.748;2023-07-08T03:37:10;1999.90;;;999.90;;
11378;SDS011;5744;59.392;16.748;2023-07-08T03:39:38;1999.90;;;999.90;;
11378;SDS011;5744;59.392;16.748;2023-07-08T03:42:07;1999.90;;;999.90;;
11378;SDS011;5744;59.392;16.748;2023-07-08T03:44:37;1999.90;;;685.60;;
11378;SDS011;5744;59.392;16.748;2023-07-08T03:47:09;1999.90;;;999.90;;
11378;SDS011;5744;59.392;16.748;2023-07-08T03:49:38;1999.90;;;509.47;;
11378;SDS011;5744;59.392;16.748;2023-07-08T03:52:07;1999.90;;;999.90;;
11378;SDS011;5744;59.392;16.748;2023-07-08T03:54:44;1999.90;;;999.90;;
11378;SDS011;5744;59.392;16.748;2023-07-08T03:57:13;1999.90;;;999.90;;
11378;SDS011;5744;59.392;16.748;2023-07-08T03:59:42;1999.90;;;999.90;;
11378;SDS011;5744;59.392;16.748;2023-07-08T04:02:13;1999.90;;;999.90;;
11378;SDS011;5744;59.392;16.748;2023-07-08T04:04:42;1999.90;;;999.90;;
11378;SDS011;5744;59.392;16.748;2023-07-08T04:07:12;1999.90;;;494.40;;
11378;SDS011;5744;59.392;16.748;2023-07-08T04:09:40;1999.90;;;999.90;;
11378;SDS011;5744;59.392;16.748;2023-07-08T04:12:15;1999.90;;;462.57;;
11378;SDS011;5744;59.392;16.748;2023-07-08T04:14:44;1999.90;;;469.23;;
11378;SDS011;5744;59.392;16.748;2023-07-08T04:17:15;1999.90;;;999.90;;
11378;SDS011;5744;59.392;16.748;2023-07-08T04:19:48;1999.90;;;999.90;;
11378;SDS011;5744;59.392;16.748;2023-07-08T04:22:17;1999.90;;;999.90;;
11378;SDS011;5744;59.392;16.748;2023-07-08T04:24:46;1999.90;;;999.90;;
11378;SDS011;5744;59.392;16.748;2023-07-08T04:27:15;1999.90;;;999.90;;
11378;SDS011;5744;59.392;16.748;2023-07-08T04:29:45;1999.90;;;999.90;;
11378;SDS011;5744;59.392;16.748;2023-07-08T04:32:16;1999.90;;;999.90;;
11378;SDS011;5744;59.392;16.748;2023-07-08T04:34:45;1999.90;;;999.90;;
11378;SDS011;5744;59.392;16.748;2023-07-08T04:37:14;1999.90;;;654.70;;
11378;SDS011;5744;59.392;16.748;2023-07-08T04:39:44;1999.90;;;999.90;;
11378;SDS011;5744;59.392;16.748;2023-07-08T04:42:13;1999.90;;;999.90;;
11378;SDS011;5744;59.392;16.748;2023-07-08T04:44:43;1999.90;;;999.90;;
11378;SDS011;5744;59.392;16.748;2023-07-08T04:47:17;1999.90;;;999.90;;
11378;SDS011;5744;59.392;16.748;2023-07-08T04:49:46;1999.90;;;999.90;;
11378;SDS011;5744;59.392;16.748;2023-07-08T04:52:15;1999.90;;;999.90;;
11378;SDS011;5744;59.392;16.748;2023-07-08T04:54:44;1999.90;;;999.90;;
11378;SDS011;5744;59.392;16.748;2023-07-08T04:57:13;1999.90;;;999.90;;
11378;SDS011;5744;59.392;16.748;2023-07-08T04:59:42;1999.90;;;999.90;;
11378;SDS011;5744;59.392;16.748;2023-07-08T05:02:11;1999.90;;;999.90;;
11378;SDS011;5744;59.392;16.748;2023-07-08T05:04:42;1999.90;;;999.90;;
11378;SDS011;5744;59.392;16.748;2023-07-08T05:07:11;1999.90;;;999.90;;
11378;SDS011;5744;59.392;16.748;2023-07-08T05:09:40;1999.90;;;999.90;;
11378;SDS011;5744;59.392;16.748;2023-07-08T05:12:09;1999.90;;;999.90;;
11378;SDS011;5744;59.392;16.748;2023-07-08T05:14:38;1999.90;;;999.90;;
11378;SDS011;5744;59.392;16.748;2023-07-08T05:17:07;1999.90;;;999.90;;
11378;SDS011;5744;59.392;16.748;2023-07-08T05:19:38;1999.90;;;999.90;;
11378;SDS011;5744;59.392;16.748;2023-07-08T05:22:12;1999.90;;;999.90;;
11378;SDS011;5744;59.392;16.748;2023-07-08T05:24:42;1999.90;;;999.90;;
11378;SDS011;5744;59.392;16.748;2023-07-08T05:27:11;1999.90;;;999.90;;
11378;SDS011;5744;59.392;16.748;2023-07-08T05:29:40;1999.90;;;999.90;;
11378;SDS011;5744;59.392;16.748;2023-07-08T05:32:09;1999.90;;;999.90;;
11378;SDS011;5744;59.392;16.748;2023-07-08T05:34:37;1999.90;;;999.90;;
11378;SDS011;5744;59.392;16.748;2023-07-08T05:37:06;1999.90;;;999.90;;
11378;SDS011;5744;59.392;16.748;2023-07-08T05:39:38;1999.90;;;999.90;;
11378;SDS011;5744;59.392;16.748;2023-07-08T05:42:07;1999.90;;;999.90;;
11378;SDS011;5744;59.392;16.748;2023-07-08T05:44:36;1999.90;;;999.90;;
11378;SDS011;5744;59.392;16.748;2023-07-08T05:47:05;1999.90;;;999.90;;
11378;SDS011;5744;59.392;16.748;2023-07-08T05:49:34;1999.90;;;999.90;;
11378;SDS011;5744;59.392;16.748;2023-07-08T05:52:04;1999.90;;;559.83;;
11378;SDS011;5744;59.392;16.748;2023-07-08T05:54:39;1999.90;;;999.90;;
11378;SDS011;5744;59.392;16.748;2023-07-08T05:57:10;1999.90;;;540.50;;
11378;SDS011;5744;59.392;16.748;2023-07-08T05:59:39;1999.90;;;534.70;;
11378;SDS011;5744;59.392;16.748;2023-07-08T06:02:08;1999.90;;;999.90;;
11378;SDS011;5744;59.392;16.748;2023-07-08T06:04:39;1999.90;;;999.90;;
11378;SDS011;5744;59.392;16.748;2023-07-08T06:07:08;1999.90;;;999.90;;
11378;SDS011;5744;59.392;16.748;2023-07-08T06:09:40;1999.90;;;999.90;;
11378;SDS011;5744;59.392;16.748;2023-07-08T06:12:09;1999.90;;;541.70;;
11378;SDS011;5744;59.392;16.748;2023-07-08T06:14:38;1999.90;;;999.90;;
11378;SDS011;5744;59.392;16.748;2023-07-08T06:17:07;1999.90;;;999.90;;
11378;SDS011;5744;59.392;16.748;2023-07-08T06:19:36;1999.90;;;999.90;;
11378;SDS011;5744;59.392;16.748;2023-07-08T06:22:05;1999.90;;;999.90;;
11378;SDS011;5744;59.392;16.748;2023-07-08T06:24:34;1999.90;;;537.10;;
11378;SDS011;5744;59.392;16.748;2023-07-08T06:27:06;1999.90;;;999.90;;
11378;SDS011;5744;59.392;16.748;2023-07-08T06:29:35;1999.90;;;999.90;;
11378;SDS011;5744;59.392;16.748;2023-07-08T06:32:05;1999.90;;;999.90;;
11378;SDS011;5744;59.392;16.748;2023-07-08T06:34:35;1999.90;;;999.90;;
11378;SDS011;5744;59.392;16.748;2023-07-08T06:37:04;1999.90;;;999.90;;
11378;SDS011;5744;59.392;16.748;2023-07-08T06:39:33;1999.90;;;999.90;;
11378;SDS011;5744;59.392;16.748;2023-07-08T06:42:03;1999.90;;;583.67;;
11378;SDS011;5744;59.392;16.748;2023-07-08T06:44:34;1999.90;;;802.80;;
11378;SDS011;5744;59.392;16.748;2023-07-08T06:47:03;1999.90;;;999.90;;
11378;SDS011;5744;59.392;16.748;2023-07-08T06:49:33;1999.90;;;999.90;;
11378;SDS011;5744;59.392;16.748;2023-07-08T06:52:02;1999.90;;;591.80;;
11378;SDS011;5744;59.392;16.748;2023-07-08T06:54:32;1999.90;;;572.50;;
11378;SDS011;5744;59.392;16.748;2023-07-08T06:57:01;1999.90;;;424.60;;
11378;SDS011;5744;59.392;16.748;2023-07-08T06:59:32;1999.90;;;999.90;;
11378;SDS011;5744;59.392;16.748;2023-07-08T07:02:01;1999.90;;;999.90;;
11378;SDS011;5744;59.392;16.748;2023-07-08T07:04:31;1999.90;;;999.90;;
11378;SDS011;5744;59.392;16.748;2023-07-08T07:07:00;1999.90;;;999.90;;
11378;SDS011;5744;59.392;16.748;2023-07-08T07:09:30;1999.90;;;999.90;;
11378;SDS011;5744;59.392;16.748;2023-07-08T07:11:59;1999.90;;;999.90;;
11378;SDS011;5744;59.392;16.748;2023-07-08T07:14:27;1999.90;;;999.90;;
11378;SDS011;5744;59.392;16.748;2023-07-08T07:16:59;1999.90;;;614.30;;
11378;SDS011;5744;59.392;16.748;2023-07-08T07:19:28;1999.90;;;999.90;;
11378;SDS011;5744;59.392;16.748;2023-07-08T07:21:57;1999.90;;;999.90;;
11378;SDS011;5744;59.392;16.748;2023-07-08T07:24:26;1999.90;;;670.50;;
11378;SDS011;5744;59.392;16.748;2023-07-08T07:26:55;1999.90;;;999.90;;
11378;SDS011;5744;59.392;16.748;2023-07-08T07:29:24;1999.90;;;999.90;;
11378;SDS011;5744;59.392;16.748;2023-07-08T07:31:53;1999.90;;;999.90;;
11378;SDS011;5744;59.392;16.748;2023-07-08T07:34:25;1999.90;;;999.90;;
11378;SDS011;5744;59.392;16.748;2023-07-08T07:36:54;1999.90;;;733.23;;
11378;SDS011;5744;59.392;16.748;2023-07-08T07:39:23;1999.90;;;923.33;;
11378;SDS011;5744;59.392;16.748;2023-07-08T07:41:53;1999.90;;;867.42;;
11378;SDS011;5744;59.392;16.748;2023-07-08T07:44:22;1999.90;;;890.55;;
11378;SDS011;5744;59.392;16.748;2023-07-08T07:46:51;1999.90;;;890.33;;
11378;SDS011;5744;59.392;16.748;2023-07-08T07:49:25;1999.90;;;948.83;;
11378;SDS011;5744;59.392;16.748;2023-07-08T07:51:53;1999.90;;;959.33;;
11378;SDS011;5744;59.392;16.748;2023-07-08T07:54:23;1999.90;;;845.15;;
11378;SDS011;5744;59.392;16.748;2023-07-08T07:56:52;1999.90;;;833.20;;
11378;SDS011;5744;59.392;16.748;2023-07-08T07:59:21;1999.90;;;990.33;;
11378;SDS011;5744;59.392;16.748;2023-07-08T08:01:50;1999.90;;;948.75;;
11378;SDS011;5744;59.392;16.748;2023-07-08T08:04:19;1999.90;;;971.42;;
11378;SDS011;5744;59.392;16.748;2023-07-08T08:06:50;1999.90;;;990.58;;
11378;SDS011;5744;59.392;16.748;2023-07-08T08:09:19;1999.90;;;882.15;;
11378;SDS011;5744;59.392;16.748;2023-07-08T08:11:48;1999.90;;;995.65;;
11378;SDS011;5744;59.392;16.748;2023-07-08T08:14:17;1999.90;;;975.33;;
11378;SDS011;5744;59.392;16.748;2023-07-08T08:16:46;1999.90;;;957.75;;
11378;SDS011;5744;59.392;16.748;2023-07-08T08:19:15;1999.90;;;911.28;;
11378;SDS011;5744;59.392;16.748;2023-07-08T08:21:44;1999.90;;;967.78;;
11378;SDS011;5744;59.392;16.748;2023-07-08T08:24:16;1999.90;;;915.58;;
11378;SDS011;5744;59.392;16.748;2023-07-08T08:26:45;1994.00;;;872.50;;
11378;SDS011;5744;59.392;16.748;2023-07-08T08:29:14;1999.90;;;947.08;;
11378;SDS011;5744;59.392;16.748;2023-07-08T08:31:43;1999.90;;;909.85;;
11378;SDS011;5744;59.392;16.748;2023-07-08T08:34:12;1999.90;;;914.95;;
11378;SDS011;5744;59.392;16.748;2023-07-08T08:36:41;1980.57;;;873.88;;
11378;SDS011;5744;59.392;16.748;2023-07-08T08:39:10;1999.90;;;952.10;;
11378;SDS011;5744;59.392;16.748;2023-07-08T08:41:42;1958.28;;;851.67;;
11378;SDS011;5744;59.392;16.748;2023-07-08T08:44:13;1980.68;;;866.83;;
11378;SDS011;5744;59.392;16.748;2023-07-08T08:46:45;1931.78;;;810.30;;
11378;SDS011;5744;59.392;16.748;2023-07-08T08:49:22;1741.72;;;741.60;;
11378;SDS011;5744;59.392;16.748;2023-07-08T08:51:54;1782.60;;;743.15;;
11378;SDS011;5744;59.392;16.748;2023-07-08T08:54:25;1736.25;;;718.72;;
11378;SDS011;5744;59.392;16.748;2023-07-08T08:57:00;1702.40;;;732.47;;
11378;SDS011;5744;59.392;16.748;2023-07-08T08:59:38;1440.22;;;632.70;;
11378;SDS011;5744;59.392;16.748;2023-07-08T09:02:19;1576.28;;;680.95;;
11378;SDS011;5744;59.392;16.748;2023-07-08T09:04:56;1485.13;;;666.60;;
11378;SDS011;5744;59.392;16.748;2023-07-08T09:07:34;1610.65;;;705.15;;
11378;SDS011;5744;59.392;16.748;2023-07-08T09:10:10;1698.38;;;724.60;;
11378;SDS011;5744;59.392;16.748;2023-07-08T09:12:57;1694.25;;;724.25;;
11378;SDS011;5744;59.392;16.748;2023-07-08T09:15:34;1940.47;;;809.00;;
11378;SDS011;5744;59.392;16.748;2023-07-08T09:18:04;1748.38;;;763.35;;
11378;SDS011;5744;59.392;16.748;2023-07-08T09:20:45;1562.88;;;700.47;;
11378;SDS011;5744;59.392;16.748;2023-07-08T09:23:16;1469.38;;;665.63;;
11378;SDS011;5744;59.392;16.748;2023-07-08T09:25:51;1342.40;;;628.92;;
11378;SDS011;5744;59.392;16.748;2023-07-08T09:28:38;1324.78;;;637.47;;
11378;SDS011;5744;59.392;16.748;2023-07-08T09:31:08;1470.25;;;667.92;;
11378;SDS011;5744;59.392;16.748;2023-07-08T09:33:47;1543.43;;;683.17;;
11378;SDS011;5744;59.392;16.748;2023-07-08T09:36:19;1260.38;;;593.97;;
11378;SDS011;5744;59.392;16.748;2023-07-08T09:38:53;1038.60;;;519.53;;
11378;SDS011;5744;59.392;16.748;2023-07-08T09:41:32;1298.35;;;620.10;;
11378;SDS011;5744;59.392;16.748;2023-07-08T09:44:12;1100.90;;;535.25;;
11378;SDS011;5744;59.392;16.748;2023-07-08T09:46:44;1149.10;;;555.08;;
11378;SDS011;5744;59.392;16.748;2023-07-08T09:49:17;1377.47;;;644.78;;
11378;SDS011;5744;59.392;16.748;2023-07-08T09:51:48;1056.90;;;535.05;;
11378;SDS011;5744;59.392;16.748;2023-07-08T09:54:19;1177.68;;;569.03;;
11378;SDS011;5744;59.392;16.748;2023-07-08T09:56:54;1096.28;;;537.10;;
11378;SDS011;5744;59.392;16.748;2023-07-08T09:59:33;1139.70;;;549.58;;
11378;SDS011;5744;59.392;16.748;2023-07-08T10:02:18;1104.55;;;531.67;;
11378;SDS011;5744;59.392;16.748;2023-07-08T10:04:55;943.75;;;444.02;;
11378;SDS011;5744;59.392;16.748;2023-07-08T10:07:33;1214.93;;;575.10;;
11378;SDS011;5744;59.392;16.748;2023-07-08T10:10:04;1131.72;;;532.38;;
11378;SDS011;5744;59.392;16.748;2023-07-08T10:12:39;1195.63;;;565.22;;
11378;SDS011;5744;59.392;16.748;2023-07-08T10:15:15;1138.65;;;534.42;;
11378;SDS011;5744;59.392;16.748;2023-07-08T10:17:48;1174.13;;;534.40;;
11378;SDS011;5744;59.392;16.748;2023-07-08T10:20:17;1104.63;;;516.30;;
11378;SDS011;5744;59.392;16.748;2023-07-08T10:22:52;1239.22;;;594.95;;
11378;SDS011;5744;59.392;16.748;2023-07-08T10:25:33;1086.63;;;513.88;;
11378;SDS011;5744;59.392;16.748;2023-07-08T10:28:12;1260.20;;;574.50;;
11378;SDS011;5744;59.392;16.748;2023-07-08T10:30:58;1428.93;;;616.60;;
11378;SDS011;5744;59.392;16.748;2023-07-08T10:33:43;1179.30;;;545.38;;
11378;SDS011;5744;59.392;16.748;2023-07-08T10:36:30;1201.40;;;558.97;;
11378;SDS011;5744;59.392;16.748;2023-07-08T10:42:15;1093.40;;;482.52;;
11378;SDS011;5744;59.392;16.748;2023-07-08T10:44:55;948.28;;;453.45;;
11378;SDS011;5744;59.392;16.748;2023-07-08T10:47:35;1126.63;;;523.97;;
11378;SDS011;5744;59.392;16.748;2023-07-08T10:50:18;1099.18;;;518.15;;
11378;SDS011;5744;59.392;16.748;2023-07-08T10:53:09;1016.55;;;490.17;;
11378;SDS011;5744;59.392;16.748;2023-07-08T10:55:53;1018.80;;;494.63;;
11378;SDS011;5744;59.392;16.748;2023-07-08T10:58:34;1053.25;;;500.35;;
11378;SDS011;5744;59.392;16.748;2023-07-08T11:01:19;921.33;;;434.77;;
11378;SDS011;5744;59.392;16.748;2023-07-08T11:04:05;904.78;;;410.17;;
11378;SDS011;5744;59.392;16.748;2023-07-08T11:06:51;929.13;;;439.33;;
11378;SDS011;5744;59.392;16.748;2023-07-08T11:09:27;976.90;;;468.55;;
11378;SDS011;5744;59.392;16.748;2023-07-08T11:12:00;915.40;;;443.25;;
11378;SDS011;5744;59.392;16.748;2023-07-08T11:14:37;922.95;;;431.90;;
11378;SDS011;5744;59.392;16.748;2023-07-08T11:17:15;787.45;;;379.42;;
11378;SDS011;5744;59.392;16.748;2023-07-08T11:19:54;785.88;;;380.15;;
11378;SDS011;5744;59.392;16.748;2023-07-08T11:22:27;748.97;;;347.83;;
11378;SDS011;5744;59.392;16.748;2023-07-08T11:24:59;750.55;;;353.45;;
11378;SDS011;5744;59.392;16.748;2023-07-08T11:27:32;905.33;;;433.40;;
11378;SDS011;5744;59.392;16.748;2023-07-08T11:30:04;657.10;;;286.73;;
11378;SDS011;5744;59.392;16.748;2023-07-08T11:32:52;755.30;;;354.67;;
11378;SDS011;5744;59.392;16.748;2023-07-08T11:35:32;745.53;;;353.45;;
11378;SDS011;5744;59.392;16.748;2023-07-08T11:38:05;759.42;;;351.27;;
11378;SDS011;5744;59.392;16.748;2023-07-08T11:40:48;779.33;;;353.10;;
11378;SDS011;5744;59.392;16.748;2023-07-08T11:43:19;875.80;;;405.67;;
11378;SDS011;5744;59.392;16.748;2023-07-08T11:45:50;717.92;;;323.55;;
11378;SDS011;5744;59.392;16.748;2023-07-08T11:48:23;825.75;;;385.50;;
11378;SDS011;5744;59.392;16.748;2023-07-08T11:50:57;842.95;;;387.88;;
11378;SDS011;5744;59.392;16.748;2023-07-08T11:53:32;651.53;;;269.50;;
11378;SDS011;5744;59.392;16.748;2023-07-08T11:56:04;746.15;;;347.35;;
11378;SDS011;5744;59.392;16.748;2023-07-08T11:58:51;554.25;;;204.65;;
11378;SDS011;5744;59.392;16.748;2023-07-08T12:01:46;605.30;;;249.07;;
11378;SDS011;5744;59.392;16.748;2023-07-08T12:04:26;676.35;;;287.05;;
